createdAt,value
2018-06-27T00:02:01.357Z,11.00
2018-06-27T00:04:29.858Z,11.00
2018-06-27T00:06:58.342Z,10.90
2018-06-27T00:09:26.914Z,10.90
2018-06-27T00:11:55.489Z,10.80
2018-06-27T00:14:24.014Z,10.90
2018-06-27T00:16:52.529Z,10.80
2018-06-27T00:19:21.013Z,10.80
2018-06-27T00:21:49.493Z,10.60
2018-06-27T00:24:17.950Z,10.60
2018-06-27T00:26:46.422Z,10.70
2018-06-27T00:29:14.937Z,10.70
2018-06-27T00:31:43.413Z,10.60
2018-06-27T00:34:11.870Z,10.60
2018-06-27T00:36:40.370Z,10.50
2018-06-27T00:39:09.915Z,10.50
2018-06-27T00:41:38.389Z,10.50
2018-06-27T00:44:06.893Z,10.50
2018-06-27T00:46:36.089Z,10.50
2018-06-27T00:49:04.685Z,10.50
2018-06-27T00:51:33.743Z,10.40
2018-06-27T00:54:08.274Z,10.50
2018-06-27T00:56:38.729Z,10.50
2018-06-27T00:59:07.254Z,10.40
2018-06-27T01:01:35.817Z,10.40
2018-06-27T01:04:04.347Z,10.40
2018-06-27T01:06:32.850Z,10.30
2018-06-27T01:09:01.532Z,10.30
2018-06-27T01:11:30.009Z,10.30
2018-06-27T01:13:58.491Z,10.30
2018-06-27T01:16:26.998Z,10.20
2018-06-27T01:18:55.466Z,10.20
2018-06-27T01:21:23.993Z,10.20
2018-06-27T01:23:52.492Z,10.10
2018-06-27T01:26:20.958Z,10.10
2018-06-27T01:28:49.457Z,10.00
2018-06-27T01:31:17.924Z,10.00
2018-06-27T01:33:46.382Z,10.00
2018-06-27T01:36:14.917Z,10.00
2018-06-27T01:38:43.457Z,10.00
2018-06-27T01:41:11.918Z,9.90
2018-06-27T01:43:40.365Z,9.90
2018-06-27T01:46:08.825Z,9.90
2018-06-27T01:48:37.276Z,9.80
2018-06-27T01:51:05.757Z,9.80
2018-06-27T01:53:34.246Z,9.80
2018-06-27T01:56:02.766Z,9.70
2018-06-27T01:58:31.222Z,9.80
2018-06-27T02:00:59.703Z,9.80
2018-06-27T02:03:28.149Z,9.70
2018-06-27T02:05:56.649Z,9.70
2018-06-27T02:08:25.107Z,9.60
2018-06-27T02:10:53.551Z,9.60
2018-06-27T02:13:22.015Z,9.60
2018-06-27T02:15:50.562Z,9.60
2018-06-27T02:18:19.141Z,9.60
2018-06-27T02:20:47.617Z,9.70
2018-06-27T02:23:16.891Z,9.60
2018-06-27T02:25:45.371Z,9.60
2018-06-27T02:28:13.853Z,9.60
2018-06-27T02:30:42.397Z,9.60
2018-06-27T02:33:15.048Z,9.50
2018-06-27T02:35:43.526Z,9.50
2018-06-27T02:38:11.978Z,9.50
2018-06-27T02:40:40.426Z,9.50
2018-06-27T02:43:08.906Z,9.40
2018-06-27T02:45:37.374Z,9.40
2018-06-27T02:48:05.895Z,9.30
2018-06-27T02:50:34.401Z,9.30
2018-06-27T02:53:02.872Z,9.30
2018-06-27T02:55:31.359Z,9.30
2018-06-27T02:57:59.816Z,9.20
2018-06-27T03:00:28.215Z,9.10
2018-06-27T03:05:25.289Z,9.20
2018-06-27T03:07:54.199Z,9.20
2018-06-27T03:10:22.622Z,9.20
2018-06-27T03:12:51.060Z,9.10
2018-06-27T03:15:19.490Z,9.20
2018-06-27T03:17:48.381Z,9.10
2018-06-27T03:20:16.886Z,9.00
2018-06-27T03:22:45.633Z,9.10
2018-06-27T03:25:14.077Z,9.00
2018-06-27T03:27:42.536Z,9.00
2018-06-27T03:30:10.982Z,8.90
2018-06-27T03:35:07.580Z,8.90
2018-06-27T03:37:35.989Z,9.00
2018-06-27T03:40:05.337Z,9.00
2018-06-27T03:42:33.769Z,9.00
2018-06-27T03:45:02.182Z,9.00
2018-06-27T03:47:30.603Z,9.20
2018-06-27T03:49:59.034Z,9.20
2018-06-27T03:52:27.481Z,9.10
2018-06-27T03:54:55.906Z,9.10
2018-06-27T03:57:24.385Z,9.10
2018-06-27T03:59:52.778Z,9.10
2018-06-27T04:02:21.213Z,9.10
2018-06-27T04:04:49.652Z,9.20
2018-06-27T04:07:18.070Z,9.10
2018-06-27T04:09:46.478Z,9.20
2018-06-27T04:12:14.941Z,9.30
2018-06-27T04:14:43.377Z,9.30
2018-06-27T04:17:11.818Z,9.30
2018-06-27T04:22:08.345Z,9.50
2018-06-27T04:24:37.701Z,9.50
2018-06-27T04:27:06.153Z,9.60
2018-06-27T04:29:34.617Z,9.70
2018-06-27T04:32:03.098Z,9.70
2018-06-27T04:34:31.532Z,9.80
2018-06-27T04:36:59.958Z,9.90
2018-06-27T04:39:28.398Z,9.90
2018-06-27T04:41:56.850Z,10.00
2018-06-27T04:44:25.310Z,10.00
2018-06-27T04:46:53.911Z,10.10
2018-06-27T04:49:22.436Z,10.30
2018-06-27T04:51:50.862Z,10.40
2018-06-27T04:54:19.312Z,10.50
2018-06-27T04:56:47.819Z,10.70
2018-06-27T04:59:16.279Z,11.40
2018-06-27T05:01:44.784Z,12.50
2018-06-27T05:04:13.155Z,13.60
2018-06-27T05:06:41.614Z,14.60
2018-06-27T05:09:10.710Z,15.50
2018-06-27T05:11:39.899Z,16.30
2018-06-27T05:14:08.314Z,16.80
2018-06-27T05:16:36.758Z,17.60
2018-06-27T05:21:33.500Z,18.60
2018-06-27T05:24:01.921Z,18.90
2018-06-27T05:26:30.382Z,19.20
2018-06-27T05:28:58.863Z,20.20
2018-06-27T05:31:27.338Z,19.70
2018-06-27T05:33:56.426Z,21.00
2018-06-27T05:38:53.054Z,19.90
2018-06-27T05:41:21.500Z,20.30
2018-06-27T05:43:49.922Z,20.70
2018-06-27T05:46:18.405Z,21.00
2018-06-27T05:48:46.863Z,21.70
2018-06-27T05:51:15.290Z,21.40
2018-06-27T05:53:43.725Z,22.70
2018-06-27T05:56:12.222Z,23.60
2018-06-27T05:58:40.644Z,22.90
2018-06-27T06:01:09.108Z,22.50
2018-06-27T06:03:37.569Z,22.70
2018-06-27T06:06:06.012Z,22.60
2018-06-27T06:08:34.488Z,22.00
2018-06-27T06:11:02.970Z,21.70
2018-06-27T06:13:35.817Z,21.50
2018-06-27T06:16:04.405Z,20.10
2018-06-27T06:18:32.877Z,20.10
2018-06-27T06:21:01.358Z,20.70
2018-06-27T06:23:29.856Z,21.90
2018-06-27T06:25:58.301Z,23.80
2018-06-27T06:28:26.846Z,22.70
2018-06-27T06:30:55.313Z,21.90
2018-06-27T06:33:23.747Z,21.80
2018-06-27T06:35:52.539Z,22.70
2018-06-27T06:38:20.986Z,23.30
2018-06-27T06:40:52.098Z,24.20
2018-06-27T06:43:20.722Z,24.40
2018-06-27T06:45:49.138Z,23.80
2018-06-27T06:48:17.755Z,24.10
2018-06-27T06:50:46.180Z,23.60
2018-06-27T06:53:14.597Z,24.30
2018-06-27T06:55:43.033Z,25.00
2018-06-27T06:58:11.481Z,25.70
2018-06-27T07:00:39.890Z,26.80
2018-06-27T07:03:08.374Z,25.60
2018-06-27T07:05:39.055Z,25.70
2018-06-27T07:08:07.777Z,26.40
2018-06-27T07:10:36.206Z,26.10
2018-06-27T07:13:04.651Z,26.40
2018-06-27T07:15:33.066Z,26.90
2018-06-27T07:18:01.507Z,26.80
2018-06-27T07:22:58.022Z,27.90
2018-06-27T07:25:26.425Z,28.30
2018-06-27T07:27:54.844Z,28.60
2018-06-27T07:30:23.257Z,28.00
2018-06-27T07:32:51.831Z,28.00
2018-06-27T07:35:20.244Z,27.60
2018-06-27T07:37:48.704Z,27.70
2018-06-27T07:40:17.135Z,26.80
2018-06-27T07:42:45.546Z,27.50
2018-06-27T07:45:13.977Z,28.40
2018-06-27T07:47:42.379Z,28.70
2018-06-27T07:50:11.642Z,29.50
2018-06-27T07:52:40.057Z,30.00
2018-06-27T07:55:08.519Z,29.60
2018-06-27T07:57:37.382Z,29.10
2018-06-27T08:00:06.461Z,28.60
2018-06-27T08:02:34.906Z,29.80
2018-06-27T08:05:03.402Z,29.70
2018-06-27T08:07:31.859Z,30.30
2018-06-27T08:10:00.506Z,30.40
2018-06-27T08:12:29.025Z,29.80
2018-06-27T08:14:57.435Z,30.70
2018-06-27T08:17:25.918Z,31.10
2018-06-27T08:19:54.441Z,31.50
2018-06-27T08:22:23.587Z,31.20
2018-06-27T08:24:52.097Z,31.30
2018-06-27T08:27:20.517Z,32.60
2018-06-27T08:29:48.999Z,32.40
2018-06-27T08:32:17.417Z,32.60
2018-06-27T08:34:45.862Z,32.70
2018-06-27T08:37:14.993Z,32.40
2018-06-27T08:39:44.075Z,32.40
2018-06-27T08:42:12.674Z,32.90
2018-06-27T08:44:41.082Z,32.40
2018-06-27T08:47:09.486Z,32.90
2018-06-27T08:49:38.044Z,32.60
2018-06-27T08:52:06.534Z,33.10
2018-06-27T08:54:47.511Z,32.40
2018-06-27T08:57:17.714Z,32.40
2018-06-27T08:59:46.608Z,32.00
2018-06-27T09:02:15.074Z,32.10
2018-06-27T09:04:43.505Z,32.80
2018-06-27T09:07:11.976Z,33.90
2018-06-27T09:09:40.738Z,33.50
2018-06-27T09:12:09.219Z,33.60
2018-06-27T09:14:37.689Z,33.50
2018-06-27T09:17:06.173Z,32.70
2018-06-27T09:19:34.636Z,33.50
2018-06-27T09:22:03.135Z,34.10
2018-06-27T09:24:31.537Z,33.30
2018-06-27T09:27:00.000Z,33.30
2018-06-27T09:29:28.446Z,33.20
2018-06-27T09:31:56.903Z,33.20
2018-06-27T09:34:25.338Z,33.10
2018-06-27T09:36:53.766Z,32.90
2018-06-27T09:39:22.196Z,33.40
2018-06-27T09:41:50.656Z,34.10
2018-06-27T09:44:19.074Z,34.10
2018-06-27T09:46:47.511Z,33.80
2018-06-27T09:49:15.919Z,33.70
2018-06-27T09:51:44.354Z,32.90
2018-06-27T09:54:12.785Z,32.40
2018-06-27T09:56:41.299Z,33.00
2018-06-27T09:59:09.691Z,32.50
2018-06-27T10:01:38.129Z,33.10
2018-06-27T10:04:06.660Z,33.60
2018-06-27T10:06:35.134Z,32.70
2018-06-27T10:09:03.687Z,33.20
2018-06-27T10:11:32.130Z,34.00
2018-06-27T10:14:00.562Z,34.90
2018-06-27T10:16:29.122Z,34.60
2018-06-27T10:18:57.602Z,34.20
2018-06-27T10:21:26.042Z,34.60
2018-06-27T10:23:54.500Z,34.50
2018-06-27T10:26:22.990Z,34.80
2018-06-27T10:28:51.427Z,34.60
2018-06-27T10:31:19.987Z,34.60
2018-06-27T10:33:48.393Z,33.10
2018-06-27T10:36:16.852Z,31.90
2018-06-27T10:38:45.289Z,31.40
2018-06-27T10:43:42.261Z,30.70
2018-06-27T10:46:10.730Z,30.50
2018-06-27T10:48:39.874Z,29.50
2018-06-27T10:51:08.590Z,29.20
2018-06-27T10:53:37.025Z,28.80
2018-06-27T10:56:05.499Z,28.60
2018-06-27T10:58:33.925Z,28.10
2018-06-27T11:01:02.435Z,28.00
2018-06-27T11:03:31.293Z,27.90
2018-06-27T11:05:59.833Z,28.20
2018-06-27T11:08:28.275Z,28.40
2018-06-27T11:10:56.694Z,28.20
2018-06-27T11:13:25.288Z,28.90
2018-06-27T11:15:53.765Z,30.20
2018-06-27T11:18:22.222Z,30.40
2018-06-27T11:20:50.649Z,31.30
2018-06-27T11:23:19.118Z,31.70
2018-06-27T11:25:47.553Z,30.80
2018-06-27T11:28:15.989Z,31.50
2018-06-27T11:30:44.439Z,33.00
2018-06-27T11:33:12.846Z,32.60
2018-06-27T11:35:41.334Z,32.70
2018-06-27T11:38:09.777Z,32.80
2018-06-27T11:40:38.229Z,30.50
2018-06-27T11:43:06.900Z,29.60
2018-06-27T11:45:35.307Z,28.50
2018-06-27T11:48:04.267Z,28.30
2018-06-27T11:50:33.750Z,28.00
2018-06-27T11:53:02.259Z,27.90
2018-06-27T11:55:31.523Z,28.90
2018-06-27T11:58:00.071Z,29.90
2018-06-27T12:00:28.506Z,29.80
2018-06-27T12:02:56.978Z,30.90
2018-06-27T12:05:38.975Z,31.90
2018-06-27T12:08:07.401Z,31.50
2018-06-27T12:10:36.079Z,30.90
2018-06-27T12:13:05.133Z,29.10
2018-06-27T12:18:03.656Z,28.70
2018-06-27T12:20:32.299Z,29.10
2018-06-27T12:23:01.837Z,30.00
2018-06-27T12:25:30.272Z,30.60
2018-06-27T12:27:58.737Z,31.30
2018-06-27T12:30:27.154Z,31.00
2018-06-27T12:32:55.610Z,31.40
2018-06-27T12:35:24.054Z,31.40
2018-06-27T12:37:52.799Z,31.70
2018-06-27T12:40:21.354Z,30.60
2018-06-27T12:42:49.834Z,29.40
2018-06-27T12:45:18.279Z,29.40
2018-06-27T12:47:46.725Z,30.10
2018-06-27T12:50:15.228Z,30.60
2018-06-27T12:52:43.759Z,30.90
2018-06-27T12:55:13.614Z,31.20
2018-06-27T12:57:42.198Z,30.70
2018-06-27T13:00:11.408Z,30.40
2018-06-27T13:02:39.885Z,29.40
2018-06-27T13:05:09.492Z,29.20
2018-06-27T13:07:37.980Z,29.00
2018-06-27T13:10:07.594Z,29.40
2018-06-27T13:12:36.335Z,29.50
2018-06-27T13:15:05.736Z,29.60
2018-06-27T13:17:34.265Z,30.40
2018-06-27T13:20:03.427Z,30.40
2018-06-27T13:22:32.019Z,30.90
2018-06-27T13:25:01.359Z,30.90
2018-06-27T13:27:29.816Z,30.90
2018-06-27T13:29:58.399Z,31.00
2018-06-27T13:32:26.891Z,31.10
2018-06-27T13:34:57.724Z,30.30
2018-06-27T13:37:27.108Z,30.30
2018-06-27T13:39:55.634Z,29.80
2018-06-27T13:42:24.230Z,29.40
2018-06-27T13:44:53.282Z,29.60
2018-06-27T13:47:21.838Z,29.50
2018-06-27T13:49:50.333Z,29.50
2018-06-27T13:52:18.934Z,29.00
2018-06-27T13:54:52.855Z,28.20
2018-06-27T13:57:21.418Z,27.70
2018-06-27T13:59:49.888Z,27.90
2018-06-27T14:02:18.438Z,28.00
2018-06-27T14:07:15.067Z,28.50
2018-06-27T14:09:43.516Z,29.00
2018-06-27T14:12:11.978Z,28.90
2018-06-27T14:14:40.494Z,28.50
2018-06-27T14:17:09.055Z,28.20
2018-06-27T14:19:37.560Z,28.20
2018-06-27T14:22:06.947Z,28.20
2018-06-27T14:24:35.540Z,28.30
2018-06-27T14:27:04.118Z,28.50
2018-06-27T14:29:32.580Z,28.50
2018-06-27T14:32:01.204Z,28.60
2018-06-27T14:34:29.687Z,28.70
2018-06-27T14:36:58.135Z,28.80
2018-06-27T14:39:26.593Z,28.50
2018-06-27T14:41:55.039Z,28.30
2018-06-27T14:44:23.466Z,28.10
2018-06-27T14:46:52.256Z,28.10
2018-06-27T14:49:20.770Z,28.00
2018-06-27T14:51:49.159Z,27.80
2018-06-27T14:56:45.817Z,27.70
2018-06-27T14:59:15.094Z,27.60
2018-06-27T15:04:11.781Z,27.50
2018-06-27T15:06:40.269Z,27.10
2018-06-27T15:09:09.229Z,27.20
2018-06-27T15:14:05.880Z,26.90
2018-06-27T15:21:30.898Z,26.60
2018-06-27T15:23:59.385Z,26.60
2018-06-27T15:26:27.856Z,26.60
2018-06-27T15:28:56.291Z,26.60
2018-06-27T15:31:24.724Z,26.70
2018-06-27T15:33:53.193Z,26.60
2018-06-27T15:36:21.671Z,26.50
2018-06-27T15:38:50.253Z,26.60
2018-06-27T15:41:18.713Z,26.60
2018-06-27T15:43:47.159Z,26.50
2018-06-27T15:46:15.745Z,26.50
2018-06-27T15:48:44.266Z,26.20
2018-06-27T15:51:12.812Z,25.80
2018-06-27T15:53:41.298Z,25.80
2018-06-27T15:56:09.788Z,25.90
2018-06-27T15:58:38.209Z,25.80
2018-06-27T16:01:07.010Z,25.80
2018-06-27T16:03:35.517Z,26.00
2018-06-27T16:06:04.109Z,26.00
2018-06-27T16:08:33.455Z,25.90
2018-06-27T16:11:01.955Z,25.80
2018-06-27T16:13:30.701Z,25.70
2018-06-27T16:15:59.155Z,25.70
2018-06-27T16:18:27.668Z,25.70
2018-06-27T16:20:56.240Z,25.60
2018-06-27T16:23:24.663Z,25.60
2018-06-27T16:25:53.206Z,25.60
2018-06-27T16:28:21.657Z,25.50
2018-06-27T16:30:50.102Z,25.30
2018-06-27T16:33:18.620Z,25.30
2018-06-27T16:35:47.067Z,25.40
2018-06-27T16:38:15.512Z,25.30
2018-06-27T16:40:43.975Z,25.20
2018-06-27T16:43:12.427Z,25.30
2018-06-27T16:45:40.886Z,25.40
2018-06-27T16:48:09.354Z,25.30
2018-06-27T16:50:37.926Z,25.20
2018-06-27T16:53:07.476Z,25.10
2018-06-27T16:55:36.001Z,25.20
2018-06-27T16:58:04.543Z,25.20
2018-06-27T17:00:33.000Z,25.20
2018-06-27T17:03:01.494Z,25.00
2018-06-27T17:05:29.985Z,25.00
2018-06-27T17:07:58.423Z,24.80
2018-06-27T17:10:26.990Z,24.80
2018-06-27T17:12:55.474Z,24.80
2018-06-27T17:15:23.867Z,24.70
2018-06-27T17:17:52.290Z,24.70
2018-06-27T17:20:20.723Z,24.60
2018-06-27T17:25:17.395Z,24.50
2018-06-27T17:27:45.800Z,24.50
2018-06-27T17:30:14.271Z,24.50
2018-06-27T17:32:42.741Z,24.50
2018-06-27T17:35:11.186Z,24.40
2018-06-27T17:37:39.605Z,24.40
2018-06-27T17:40:08.382Z,24.40
2018-06-27T17:42:36.845Z,24.30
2018-06-27T17:45:05.514Z,24.30
2018-06-27T17:47:34.134Z,24.20
2018-06-27T17:50:02.579Z,24.20
2018-06-27T17:52:31.066Z,24.20
2018-06-27T17:57:27.824Z,24.20
2018-06-27T17:59:56.270Z,24.30
2018-06-27T18:02:24.741Z,24.30
2018-06-27T18:04:53.303Z,24.20
2018-06-27T18:07:21.745Z,24.30
2018-06-27T18:09:50.248Z,24.30
2018-06-27T18:12:18.692Z,24.20
2018-06-27T18:14:47.167Z,24.00
2018-06-27T18:17:15.629Z,24.00
2018-06-27T18:19:44.150Z,23.80
2018-06-27T18:22:12.578Z,23.60
2018-06-27T18:24:41.082Z,23.50
2018-06-27T18:27:09.697Z,23.50
2018-06-27T18:29:38.152Z,23.30
2018-06-27T18:32:06.689Z,23.30
2018-06-27T18:34:35.201Z,23.20
2018-06-27T18:37:03.659Z,23.20
2018-06-27T18:39:32.128Z,23.10
2018-06-27T18:42:00.583Z,23.00
2018-06-27T18:44:29.070Z,23.00
2018-06-27T18:46:57.514Z,22.80
2018-06-27T18:49:25.985Z,22.70
2018-06-27T18:51:54.472Z,22.60
2018-06-27T18:54:22.918Z,22.50
2018-06-27T18:56:51.380Z,22.30
2018-06-27T18:59:20.010Z,22.20
2018-06-27T19:01:48.532Z,22.10
2018-06-27T19:04:16.976Z,21.80
2018-06-27T19:06:45.399Z,21.70
2018-06-27T19:09:13.962Z,21.50
2018-06-27T19:11:42.734Z,21.30
2018-06-27T19:14:15.290Z,21.00
2018-06-27T19:16:43.874Z,20.80
2018-06-27T19:19:12.306Z,20.50
2018-06-27T19:21:40.821Z,20.30
2018-06-27T19:24:09.240Z,20.00
2018-06-27T19:26:37.675Z,19.80
2018-06-27T19:29:06.179Z,19.60
2018-06-27T19:31:34.594Z,19.50
2018-06-27T19:34:03.036Z,19.40
2018-06-27T19:36:31.505Z,19.20
2018-06-27T19:39:00.062Z,19.10
2018-06-27T19:41:28.522Z,18.80
2018-06-27T19:43:57.346Z,18.70
2018-06-27T19:46:25.920Z,18.50
2018-06-27T19:48:54.354Z,18.30
2018-06-27T19:51:22.901Z,18.00
2018-06-27T19:53:51.250Z,18.00
2018-06-27T19:56:20.526Z,17.80
2018-06-27T19:58:48.941Z,17.70
2018-06-27T20:01:17.434Z,17.60
2018-06-27T20:03:45.885Z,17.50
2018-06-27T20:06:31.022Z,17.50
2018-06-27T20:08:59.471Z,17.40
2018-06-27T20:11:27.901Z,17.40
2018-06-27T20:13:56.375Z,17.30
2018-06-27T20:16:24.897Z,17.10
2018-06-27T20:18:53.345Z,16.90
2018-06-27T20:21:21.757Z,16.70
2018-06-27T20:23:50.181Z,16.50
2018-06-27T20:26:18.640Z,16.40
2018-06-27T20:28:47.085Z,16.20
2018-06-27T20:31:15.760Z,16.10
2018-06-27T20:33:44.161Z,16.00
2018-06-27T20:36:12.601Z,15.90
2018-06-27T20:38:41.190Z,15.90
2018-06-27T20:41:09.635Z,15.70
2018-06-27T20:43:38.854Z,15.60
2018-06-27T20:46:07.523Z,15.50
2018-06-27T20:48:35.981Z,15.50
2018-06-27T20:53:32.584Z,15.40
2018-06-27T20:56:01.090Z,15.30
2018-06-27T20:58:29.638Z,15.10
2018-06-27T21:00:58.116Z,15.00
2018-06-27T21:03:26.590Z,15.00
2018-06-27T21:05:55.079Z,15.00
2018-06-27T21:08:23.555Z,14.90
2018-06-27T21:10:52.059Z,14.80
2018-06-27T21:13:20.582Z,14.70
2018-06-27T21:15:49.044Z,14.60
2018-06-27T21:18:17.503Z,14.60
2018-06-27T21:20:46.740Z,14.50
2018-06-27T21:23:15.207Z,14.40
2018-06-27T21:25:43.757Z,14.30
2018-06-27T21:28:12.252Z,14.30
2018-06-27T21:30:40.743Z,14.20
2018-06-27T21:33:09.238Z,14.10
2018-06-27T21:35:37.827Z,14.10
2018-06-27T21:38:06.341Z,14.10
2018-06-27T21:40:34.805Z,14.00
2018-06-27T21:43:03.256Z,13.90
2018-06-27T21:45:31.831Z,13.90
2018-06-27T21:48:00.394Z,13.80
2018-06-27T21:50:28.912Z,13.80
2018-06-27T21:52:57.402Z,13.80
2018-06-27T21:55:25.897Z,13.70
2018-06-27T21:57:54.480Z,13.70
2018-06-27T22:00:25.233Z,13.60
2018-06-27T22:02:53.942Z,13.50
2018-06-27T22:05:22.435Z,13.50
2018-06-27T22:07:50.986Z,13.50
2018-06-27T22:10:19.489Z,13.50
2018-06-27T22:12:48.027Z,13.50
2018-06-27T22:15:16.501Z,13.40
2018-06-27T22:17:45.012Z,13.30
2018-06-27T22:20:13.494Z,13.30
2018-06-27T22:22:41.983Z,13.20
2018-06-27T22:25:10.486Z,13.20
2018-06-27T22:27:38.932Z,13.00
2018-06-27T22:30:07.397Z,12.90
2018-06-27T22:32:35.895Z,12.90
2018-06-27T22:35:04.377Z,12.90
2018-06-27T22:37:32.870Z,12.80
2018-06-27T22:40:01.474Z,12.90
2018-06-27T22:42:30.009Z,12.80
2018-06-27T22:44:58.505Z,12.70
2018-06-27T22:47:26.998Z,12.60
2018-06-27T22:49:55.501Z,12.60
2018-06-27T22:52:23.959Z,12.60
2018-06-27T22:54:52.499Z,12.60
2018-06-27T22:57:20.985Z,12.50
2018-06-27T22:59:49.454Z,12.50
2018-06-27T23:02:17.980Z,12.40
2018-06-27T23:04:46.599Z,12.40
2018-06-27T23:07:15.178Z,12.40
2018-06-27T23:09:43.691Z,12.40
2018-06-27T23:12:12.175Z,12.30
2018-06-27T23:14:40.738Z,12.30
2018-06-27T23:17:09.308Z,12.30
2018-06-27T23:19:37.773Z,12.20
2018-06-27T23:22:06.577Z,12.20
2018-06-27T23:24:35.221Z,12.20
2018-06-27T23:27:03.745Z,12.20
2018-06-27T23:29:32.329Z,12.20
2018-06-27T23:32:00.806Z,12.10
2018-06-27T23:34:29.412Z,12.00
2018-06-27T23:36:58.042Z,11.90
2018-06-27T23:39:26.623Z,12.00
2018-06-27T23:41:55.067Z,11.90
2018-06-27T23:44:23.542Z,11.80
2018-06-27T23:46:52.179Z,11.70
2018-06-27T23:49:20.650Z,11.70
2018-06-27T23:51:49.129Z,11.60
2018-06-27T23:54:17.655Z,11.60
2018-06-27T23:56:46.190Z,11.60
